Sardinia Regina — IBMS — position and weather

sailwx.info

Track history (hours):
 
Tides and Currents Weather Stations Pressure Air Temp Water Temp Dewpoint Dewpoint Depression Visibility Wind Speed Wind Dir Waves Ship Positions

Sardinia Regina

Last reported at 2014-Oct-31 22:13 UTC. Time now 2014-Nov-01 06:11 UTC.
Position N 43°05' E 010°05'.

Length 146 m; draft 5 m.

Type: Passenger vessel. MMSI: 247079000.

Date/timePositionNaut miles runAvg speedWind from/ knotsBaromVisibWave heightAir tempDewpointWater temp
2014-Oct-31 22:13N 43°05' E 010°05'1116.5
2014-Oct-31 21:33N 43°15' E 010°08'1716.6
2014-Oct-31 20:33N 43°31' E 010°14'4 3.7
2014-Oct-31 19:33N 43°33' E 010°18'0 0.0
2014-Oct-31 18:33N 43°33' E 010°18'1 1.4
2014-Oct-31 17:33N 43°32' E 010°17'1514.6
2014-Oct-31 16:33N 43°19' E 010°08'1716.5
2014-Oct-31 15:33N 43°03' E 009°60'13 2.6
2014-Oct-31 10:24N 42°54' E 009°48'1315.5
2014-Oct-31 09:33N 43°03' E 009°59'1616.4
2014-Oct-31 08:33N 43°19' E 010°06'1514.7
2014-Oct-31 07:34N 43°32' E 010°16'2 2.0
2014-Oct-31 06:34N 43°33' E 010°18'0 0.4
2014-Oct-31 05:34N 43°33' E 010°18'1313.5
2014-Oct-31 04:34N 43°21' E 010°10'1616.1
2014-Oct-31 03:33N 43°05' E 010°05'1 0.0
2014-Oct-29 22:03N 43°05' E 010°05'816.6
2014-Oct-29 21:34N 43°14' E 010°07'1616.2
2014-Oct-29 20:34N 43°29' E 010°12'6 5.8
2014-Oct-29 19:33N 43°33' E 010°18'0 0.0
2014-Oct-29 18:33N 43°33' E 010°18'0 0.0
2014-Oct-29 17:33N 43°33' E 010°18'0 0.0
2014-Oct-29 16:33N 43°33' E 010°18'0 0.0
2014-Oct-29 15:33N 43°33' E 010°18'0 0.0
2014-Oct-29 14:33N 43°33' E 010°18'0 0.0
2014-Oct-29 13:33N 43°33' E 010°18'0 0.0
2014-Oct-29 12:33N 43°33' E 010°18'0 0.0
2014-Oct-29 11:33N 43°33' E 010°18'0 0.0
2014-Oct-29 10:33N 43°33' E 010°18'0 0.0
2014-Oct-29 09:33N 43°33' E 010°18'0 0.0
2014-Oct-29 08:33N 43°33' E 010°18'0 0.0
2014-Oct-29 07:33N 43°33' E 010°18'0 0.0
2014-Oct-29 06:33N 43°33' E 010°18'4 4.3
2014-Oct-29 05:34N 43°30' E 010°14'1515.4
2014-Oct-29 04:34N 43°15' E 010°08'14 0.5
2014-Oct-27 22:22N 43°02' E 010°03'1316.4
2014-Oct-27 21:34N 43°15' E 010°07'1616.5
2014-Oct-27 20:34N 43°31' E 010°13'5 4.8
2014-Oct-27 19:33N 43°33' E 010°18'0 0.0
2014-Oct-27 18:33N 43°33' E 010°18'0 0.0
2014-Oct-27 17:33N 43°33' E 010°18'0 0.0
2014-Oct-27 16:33N 43°33' E 010°18'0 0.0
2014-Oct-27 15:33N 43°33' E 010°18'0 0.0
2014-Oct-27 14:33N 43°33' E 010°18'0 0.0
2014-Oct-27 13:33N 43°33' E 010°18'0 0.0
2014-Oct-27 12:33N 43°33' E 010°18'0 0.0
2014-Oct-27 11:33N 43°33' E 010°18'0 0.0
2014-Oct-27 10:33N 43°33' E 010°18'0 0.0
2014-Oct-27 09:33N 43°33' E 010°18'0 0.0
2014-Oct-27 08:33N 43°33' E 010°18'0 0.0
2014-Oct-27 07:33N 43°33' E 010°18'0 0.0
2014-Oct-27 06:33N 43°33' E 010°18'5 5.3
2014-Oct-27 05:33N 43°29' E 010°14'1514.9
2014-Oct-27 04:33N 43°15' E 010°09'12 0.4
2014-Oct-25 21:33N 43°03' E 010°05'1514.8
2014-Oct-25 20:33N 43°17' E 010°09'1313.5
2014-Oct-25 19:33N 43°30' E 010°13'5 4.6
2014-Oct-25 18:33N 43°33' E 010°18'0 0.0
2014-Oct-25 17:33N 43°33' E 010°18'0 0.0
2014-Oct-25 16:33N 43°33' E 010°18'0 0.0
2014-Oct-25 15:33N 43°33' E 010°18'0 0.0
2014-Oct-25 14:33N 43°33' E 010°18'0 0.0
2014-Oct-25 13:33N 43°33' E 010°18'0 0.0
2014-Oct-25 12:33N 43°33' E 010°18'0 0.0
2014-Oct-25 11:33N 43°33' E 010°18'0 0.0
2014-Oct-25 10:33N 43°33' E 010°18'0 0.0
2014-Oct-25 09:33N 43°33' E 010°18'0 0.0
2014-Oct-25 08:33N 43°33' E 010°18'0 0.0
2014-Oct-25 07:33N 43°33' E 010°18'0 0.0
2014-Oct-25 06:33N 43°33' E 010°18'0 0.0
2014-Oct-25 05:33N 43°33' E 010°18'4 4.0
2014-Oct-25 04:33N 43°30' E 010°15'1515.2
2014-Oct-25 03:33N 43°16' E 010°10'17 0.6
2014-Oct-23 21:33N 42°60' E 010°02'1716.9
2014-Oct-23 20:33N 43°16' E 010°08'1616.0
2014-Oct-23 19:33N 43°31' E 010°14'4 3.7
2014-Oct-23 18:33N 43°33' E 010°18'0 0.0
2014-Oct-23 17:33N 43°33' E 010°18'0 0.0
2014-Oct-23 16:33N 43°33' E 010°18'0 0.0
2014-Oct-23 15:33N 43°33' E 010°18'0 0.0
2014-Oct-23 14:33N 43°33' E 010°18'0 0.0
2014-Oct-23 13:33N 43°33' E 010°18'0 0.0
2014-Oct-23 12:33N 43°33' E 010°18'0 0.0
2014-Oct-23 11:33N 43°33' E 010°18'0 0.0
2014-Oct-23 10:33N 43°33' E 010°18'0 0.0
2014-Oct-23 09:33N 43°33' E 010°18'0 0.0
2014-Oct-23 08:33N 43°33' E 010°18'0 0.0
2014-Oct-23 07:33N 43°33' E 010°18'0 0.0
2014-Oct-23 06:33N 43°33' E 010°18'2 2.2
2014-Oct-23 05:33N 43°32' E 010°16'9 9.3
2014-Oct-23 04:33N 43°23' E 010°11'1615.7
2014-Oct-23 03:33N 43°08' E 010°03'  
Track history (hours):
 
Tides and Currents Weather Stations Pressure Air Temp Water Temp Dewpoint Dewpoint Depression Visibility Wind Speed Wind Dir Waves Ship Positions

Sardinia Regina

Last reported at 2014-Oct-31 22:13 UTC. Time now 2014-Nov-01 06:11 UTC.
Position N 43°05' E 010°05'.

Length 146 m; draft 5 m.

Type: Passenger vessel. MMSI: 247079000.

Date/timePositionNaut miles runAvg speedWind from/ knotsBaromVisibWave heightAir tempDewpointWater temp
2014-Oct-31 22:13N 43°05' E 010°05'1116.5
2014-Oct-31 21:33N 43°15' E 010°08'1716.6
2014-Oct-31 20:33N 43°31' E 010°14'4 3.7
2014-Oct-31 19:33N 43°33' E 010°18'0 0.0
2014-Oct-31 18:33N 43°33' E 010°18'1 1.4
2014-Oct-31 17:33N 43°32' E 010°17'1514.6
2014-Oct-31 16:33N 43°19' E 010°08'1716.5
2014-Oct-31 15:33N 43°03' E 009°60'13 2.6
2014-Oct-31 10:24N 42°54' E 009°48'1315.5
2014-Oct-31 09:33N 43°03' E 009°59'1616.4
2014-Oct-31 08:33N 43°19' E 010°06'1514.7
2014-Oct-31 07:34N 43°32' E 010°16'2 2.0
2014-Oct-31 06:34N 43°33' E 010°18'0 0.4
2014-Oct-31 05:34N 43°33' E 010°18'1313.5
2014-Oct-31 04:34N 43°21' E 010°10'1616.1
2014-Oct-31 03:33N 43°05' E 010°05'1 0.0
2014-Oct-29 22:03N 43°05' E 010°05'816.6
2014-Oct-29 21:34N 43°14' E 010°07'1616.2
2014-Oct-29 20:34N 43°29' E 010°12'6 5.8
2014-Oct-29 19:33N 43°33' E 010°18'0 0.0
2014-Oct-29 18:33N 43°33' E 010°18'0 0.0
2014-Oct-29 17:33N 43°33' E 010°18'0 0.0
2014-Oct-29 16:33N 43°33' E 010°18'0 0.0
2014-Oct-29 15:33N 43°33' E 010°18'0 0.0
2014-Oct-29 14:33N 43°33' E 010°18'0 0.0
2014-Oct-29 13:33N 43°33' E 010°18'0 0.0
2014-Oct-29 12:33N 43°33' E 010°18'0 0.0
2014-Oct-29 11:33N 43°33' E 010°18'0 0.0
2014-Oct-29 10:33N 43°33' E 010°18'0 0.0
2014-Oct-29 09:33N 43°33' E 010°18'0 0.0
2014-Oct-29 08:33N 43°33' E 010°18'0 0.0
2014-Oct-29 07:33N 43°33' E 010°18'0 0.0
2014-Oct-29 06:33N 43°33' E 010°18'4 4.3
2014-Oct-29 05:34N 43°30' E 010°14'1515.4
2014-Oct-29 04:34N 43°15' E 010°08'14 0.5
2014-Oct-27 22:22N 43°02' E 010°03'1316.4
2014-Oct-27 21:34N 43°15' E 010°07'1616.5
2014-Oct-27 20:34N 43°31' E 010°13'5 4.8
2014-Oct-27 19:33N 43°33' E 010°18'0 0.0
2014-Oct-27 18:33N 43°33' E 010°18'0 0.0
2014-Oct-27 17:33N 43°33' E 010°18'0 0.0
2014-Oct-27 16:33N 43°33' E 010°18'0 0.0
2014-Oct-27 15:33N 43°33' E 010°18'0 0.0
2014-Oct-27 14:33N 43°33' E 010°18'0 0.0
2014-Oct-27 13:33N 43°33' E 010°18'0 0.0
2014-Oct-27 12:33N 43°33' E 010°18'0 0.0
2014-Oct-27 11:33N 43°33' E 010°18'0 0.0
2014-Oct-27 10:33N 43°33' E 010°18'0 0.0
2014-Oct-27 09:33N 43°33' E 010°18'0 0.0
2014-Oct-27 08:33N 43°33' E 010°18'0 0.0
2014-Oct-27 07:33N 43°33' E 010°18'0 0.0
2014-Oct-27 06:33N 43°33' E 010°18'5 5.3
2014-Oct-27 05:33N 43°29' E 010°14'1514.9
2014-Oct-27 04:33N 43°15' E 010°09'12 0.4
2014-Oct-25 21:33N 43°03' E 010°05'1514.8
2014-Oct-25 20:33N 43°17' E 010°09'1313.5
2014-Oct-25 19:33N 43°30' E 010°13'5 4.6
2014-Oct-25 18:33N 43°33' E 010°18'0 0.0
2014-Oct-25 17:33N 43°33' E 010°18'0 0.0
2014-Oct-25 16:33N 43°33' E 010°18'0 0.0
2014-Oct-25 15:33N 43°33' E 010°18'0 0.0
2014-Oct-25 14:33N 43°33' E 010°18'0 0.0
2014-Oct-25 13:33N 43°33' E 010°18'0 0.0
2014-Oct-25 12:33N 43°33' E 010°18'0 0.0
2014-Oct-25 11:33N 43°33' E 010°18'0 0.0
2014-Oct-25 10:33N 43°33' E 010°18'0 0.0
2014-Oct-25 09:33N 43°33' E 010°18'0 0.0
2014-Oct-25 08:33N 43°33' E 010°18'0 0.0
2014-Oct-25 07:33N 43°33' E 010°18'0 0.0
2014-Oct-25 06:33N 43°33' E 010°18'0 0.0
2014-Oct-25 05:33N 43°33' E 010°18'4 4.0
2014-Oct-25 04:33N 43°30' E 010°15'1515.2
2014-Oct-25 03:33N 43°16' E 010°10'17 0.6
2014-Oct-23 21:33N 42°60' E 010°02'1716.9
2014-Oct-23 20:33N 43°16' E 010°08'1616.0
2014-Oct-23 19:33N 43°31' E 010°14'4 3.7
2014-Oct-23 18:33N 43°33' E 010°18'0 0.0
2014-Oct-23 17:33N 43°33' E 010°18'0 0.0
2014-Oct-23 16:33N 43°33' E 010°18'0 0.0
2014-Oct-23 15:33N 43°33' E 010°18'0 0.0
2014-Oct-23 14:33N 43°33' E 010°18'0 0.0
2014-Oct-23 13:33N 43°33' E 010°18'0 0.0
2014-Oct-23 12:33N 43°33' E 010°18'0 0.0
2014-Oct-23 11:33N 43°33' E 010°18'0 0.0
2014-Oct-23 10:33N 43°33' E 010°18'0 0.0
2014-Oct-23 09:33N 43°33' E 010°18'0 0.0
2014-Oct-23 08:33N 43°33' E 010°18'0 0.0
2014-Oct-23 07:33N 43°33' E 010°18'0 0.0
2014-Oct-23 06:33N 43°33' E 010°18'2 2.2
2014-Oct-23 05:33N 43°32' E 010°16'9 9.3
2014-Oct-23 04:33N 43°23' E 010°11'1615.7
2014-Oct-23 03:33N 43°08' E 010°03'  

Dump ship's entire track history